Black Mountain, North Carolina
Current Conditions -  °F | °C
As of 5:54 AM on Wednesday 26 Nov 2014 (Local Time) from KAVL Reporting Station
Light Rain Light Rain  
Wind Chill: 35°   Ceiling: 5000
Heat Index: 41°   Visibility: 10mi
Dew Point: 38°   Wind: 10mph
Humidity: 89%   Direction: 350°N
Pressure: 29.92"   Gusts: NA
Location:  35.62°N, 82.32°W
Report Text: KAVL 261054Z AUTO 35009KT 10SM -RA OVC050 05/03 A2992 RMK AO2 SLP127 P0006 T00500033
Loading
Personal Weather Stations






























Interactive Weather Map New forecast layout! Learn more

10-Day Weather Forecast

Advertisements
Track Severe Weather on mobile